Time;durP1;ratioP1;P1;durP2;ratioP2;P2;SDS_P1;SDS_P2;PMS_P1;PMS_P2;Temp;Humidity;BMP_temperature;BMP_pressure;BME280_temperature;BME280_humidity;BME280_pressure;Samples;Min_cycle;Max_cycle;Signal;HPM_P1;HPM_P2
2022/09/23 00:01:25;;;;;;;5.27;3.40;;;11.00;66.20;;;14.24;44.57;97857.91;5026878;28;20053;-60
2022/09/23 00:03:53;;;;;;;9.55;3.30;;;11.00;66.50;;;14.19;44.54;97863.81;5028044;28;20064;-60
2022/09/23 00:06:23;;;;;;;3.30;2.70;;;11.00;66.60;;;14.17;44.92;97850.59;5026032;28;20064;-60
2022/09/23 00:08:51;;;;;;;3.60;2.90;;;11.00;66.90;;;14.11;44.72;97856.69;5026961;28;20056;-59
2022/09/23 00:11:27;;;;;;;2.73;2.47;;;10.90;66.80;;;14.14;44.84;97852.81;5027565;28;20053;-60
2022/09/23 00:13:58;;;;;;;5.83;3.40;;;11.00;66.60;;;14.14;44.66;97855.47;5027835;28;20335;-60
2022/09/23 00:16:31;;;;;;;3.77;3.00;;;11.00;66.30;;;14.13;44.75;97856.47;5027374;28;20057;-60
2022/09/23 00:19:01;;;;;;;3.70;2.97;;;11.00;67.00;;;14.10;44.48;97855.00;5026834;28;20057;-60
2022/09/23 00:21:29;;;;;;;3.03;2.60;;;10.90;66.20;;;14.07;44.67;97855.34;5026873;28;20051;-60
2022/09/23 00:23:56;;;;;;;5.53;2.60;;;10.90;66.30;;;14.06;44.53;97863.56;5027587;28;20063;-60
2022/09/23 00:26:24;;;;;;;4.33;2.57;;;10.90;66.30;;;14.06;44.68;97853.69;5027477;28;20059;-59
2022/09/23 00:28:52;;;;;;;3.90;2.60;;;10.90;66.10;;;14.09;44.46;97857.84;5027082;28;20045;-59
2022/09/23 00:31:24;;;;;;;4.23;2.43;;;10.90;65.60;;;14.11;44.61;97853.16;5026814;28;20056;-59
2022/09/23 00:33:55;;;;;;;3.17;2.60;;;11.10;65.20;;;14.11;44.50;97845.13;5025924;28;20405;-58
2022/09/23 00:36:25;;;;;;;4.13;3.00;;;11.10;64.60;;;14.13;44.44;97848.44;5026770;28;20049;-59
2022/09/23 00:38:53;;;;;;;4.77;2.77;;;11.20;64.40;;;14.13;44.38;97849.31;5027910;28;20075;-59
2022/09/23 00:41:22;;;;;;;4.10;2.93;;;11.20;64.40;;;14.10;44.46;97848.81;5026247;28;20053;-60
2022/09/23 00:43:49;;;;;;;3.03;2.57;;;11.10;64.60;;;14.12;44.63;97847.63;5026021;28;20056;-59
2022/09/23 00:46:22;;;;;;;3.20;2.90;;;11.10;64.70;;;14.10;44.47;97843.47;5027156;28;20049;-59
2022/09/23 00:49:01;;;;;;;5.70;2.80;;;11.00;65.00;;;14.10;44.45;97846.97;5027699;28;20049;-59
2022/09/23 00:51:37;;;;;;;4.50;2.80;;;11.00;65.10;;;14.09;44.40;97839.94;5026749;28;20048;-58
2022/09/23 00:54:05;;;;;;;3.57;3.00;;;11.00;65.10;;;14.06;44.51;97842.16;5025480;28;20050;-59
2022/09/23 00:56:35;;;;;;;3.63;3.00;;;10.90;65.30;;;14.04;44.67;97838.84;5024285;28;20054;-59
2022/09/23 00:59:06;;;;;;;4.10;2.77;;;10.90;65.50;;;14.03;44.77;97837.97;5025444;28;20041;-59
2022/09/23 01:01:36;;;;;;;4.47;3.00;;;10.90;65.60;;;14.02;44.67;97836.31;5024858;28;20045;-59
2022/09/23 01:04:06;;;;;;;3.87;3.00;;;10.90;65.50;;;14.02;44.71;97836.31;5026106;28;20047;-60
2022/09/23 01:06:34;;;;;;;3.73;2.93;;;11.00;65.40;;;13.99;44.81;97829.47;5025420;28;20056;-60
2022/09/23 01:09:03;;;;;;;3.53;3.03;;;10.90;65.50;;;13.96;44.85;97831.69;5026004;28;20259;-57
2022/09/23 01:11:59;;;;;;;3.20;2.60;;;10.90;66.20;;;13.91;44.82;97826.03;5042007;28;20370;-58
2022/09/23 01:14:54;;;;;;;4.67;3.10;;;10.80;66.90;;;13.91;44.91;97818.00;5025870;28;20057;-58
2022/09/23 01:17:33;;;;;;;4.23;3.23;;;10.80;66.50;;;13.93;44.66;97824.81;5026150;28;20468;-58
2022/09/23 01:20:34;;;;;;;5.33;3.80;;;10.90;66.00;;;13.86;44.96;97818.53;5026347;28;20053;-59
2022/09/23 01:23:41;;;;;;;6.43;3.00;;;10.90;65.90;;;13.83;44.98;97820.75;5026864;28;20049;-58
2022/09/23 01:26:36;;;;;;;6.10;3.20;;;10.90;66.80;;;13.83;45.08;97818.06;5024866;28;20127;-61
2022/09/23 01:29:28;;;;;;;4.00;3.07;;;10.80;66.60;;;13.81;45.15;97815.56;5025924;28;20061;-60
2022/09/23 01:32:05;;;;;;;5.43;3.03;;;10.80;66.60;;;13.74;45.38;97818.09;5025173;28;20243;-58
2022/09/23 01:34:46;;;;;;;5.13;3.40;;;10.70;67.00;;;13.77;45.39;97819.59;5025709;28;20053;-60
2022/09/23 01:37:30;;;;;;;5.47;3.40;;;10.70;66.60;;;13.81;45.19;97820.09;5027019;28;20053;-60
2022/09/23 01:40:52;;;;;;;5.47;3.07;;;10.70;66.50;;;13.75;45.24;97817.09;5026698;28;20049;-60
2022/09/23 01:43:39;;;;;;;5.23;3.00;;;10.70;67.40;;;13.78;45.21;97816.75;5018008;28;20450;-59
2022/09/23 01:46:30;;;;;;;4.30;2.43;;;10.70;67.10;;;13.79;45.08;97813.06;5026527;28;20061;-59
2022/09/23 01:49:30;;;;;;;3.43;2.67;;;10.70;66.50;;;13.79;45.01;97805.03;5025753;28;20336;-58
2022/09/23 01:52:16;;;;;;;3.87;2.70;;;10.80;66.20;;;13.77;45.03;97804.38;5024922;28;20042;-57
2022/09/23 01:55:04;;;;;;;4.50;2.70;;;10.70;66.20;;;13.76;44.87;97796.50;5024393;28;20054;-60
2022/09/23 01:57:42;;;;;;;3.97;2.43;;;10.80;65.80;;;13.73;45.24;97796.88;5026371;28;20236;-59
2022/09/23 02:00:15;;;;;;;3.60;2.60;;;10.80;65.30;;;13.63;45.39;97798.94;5008646;28;20394;-60
2022/09/23 02:03:26;;;;;;;3.58;2.47;;;10.80;64.70;;;13.58;45.22;97794.13;5025312;28;20049;-60
2022/09/23 02:06:37;;;;;;;4.10;2.90;;;10.90;65.40;;;13.51;45.68;97791.34;5026135;28;20227;-60
2022/09/23 02:09:14;;;;;;;4.17;2.70;;;10.80;65.70;;;13.53;45.71;97789.31;5008491;28;20366;-60
2022/09/23 02:11:47;;;;;;;4.90;3.13;;;10.80;65.50;;;13.50;45.57;97783.50;5024044;28;20068;-60
2022/09/23 02:14:29;;;;;;;3.70;2.63;;;10.70;65.50;;;13.52;45.75;97786.81;5025128;28;20057;-59
2022/09/23 02:17:07;;;;;;;5.27;3.20;;;10.70;65.80;;;13.55;45.53;97781.94;5026960;28;20058;-60
2022/09/23 02:19:52;;;;;;;5.37;3.47;;;10.60;65.80;;;13.57;45.60;97787.09;5024714;28;20057;-60
2022/09/23 02:22:54;;;;;;;3.70;2.77;;;10.60;65.80;;;13.53;45.35;97788.47;5024881;28;20049;-60
2022/09/23 02:25:34;;;;;;;3.73;2.57;;;10.50;66.60;;;13.48;45.45;97789.00;5023026;28;20057;-58
2022/09/23 02:28:18;;;;;;;3.90;3.50;;;10.30;67.50;;;13.44;45.55;97786.88;5024671;28;20045;-59
2022/09/23 02:31:00;;;;;;;4.27;2.67;;;10.30;68.00;;;13.43;45.65;97785.19;5025875;28;20053;-60
2022/09/23 02:34:07;;;;;;;4.27;3.10;;;10.20;67.90;;;13.37;45.53;97789.41;5025779;28;20056;-58
2022/09/23 02:36:54;;;;;;;3.77;2.93;;;10.20;68.70;;;13.33;45.75;97785.41;5025972;28;20060;-60
2022/09/23 02:39:48;;;;;;;5.30;3.40;;;10.10;68.70;;;13.35;45.89;97784.22;5028075;28;20303;-60
2022/09/23 02:42:23;;;;;;;4.07;2.95;;;10.20;68.20;;;13.36;45.89;97780.56;5027434;28;20046;-60
2022/09/23 02:44:50;;;;;;;5.03;3.07;;;10.20;68.20;;;13.31;45.76;97785.59;5027503;28;20065;-60
2022/09/23 02:47:26;;;;;;;5.50;3.40;;;10.20;68.20;;;13.32;46.06;97783.75;5027347;28;20053;-58
2022/09/23 02:49:55;;;;;;;4.87;3.83;;;10.20;68.30;;;13.31;45.97;97779.41;5027600;28;20050;-59
2022/09/23 02:52:23;;;;;;;4.70;3.37;;;10.20;68.20;;;13.28;45.87;97767.19;5027604;28;20055;-60
2022/09/23 02:54:51;;;;;;;4.70;3.10;;;10.10;68.20;;;13.26;46.16;97771.03;5028794;28;20055;-60
2022/09/23 02:57:19;;;;;;;4.50;4.00;;;10.10;68.40;;;13.23;46.18;97763.38;5029928;28;20052;-60
2022/09/23 02:59:49;;;;;;;3.70;2.87;;;10.00;68.50;;;13.21;46.00;97766.22;5027358;28;20390;-59
2022/09/23 03:02:33;;;;;;;5.30;3.20;;;10.00;68.60;;;13.22;45.76;97772.41;5028072;28;20221;-60
2022/09/23 03:05:04;;;;;;;3.97;3.05;;;10.10;68.90;;;13.20;46.12;97764.53;5029437;28;20165;-58
2022/09/23 03:08:06;;;;;;;5.20;3.00;;;10.00;68.90;;;13.12;46.16;97770.75;5029573;28;20055;-60
2022/09/23 03:10:58;;;;;;;5.43;3.47;;;10.00;69.60;;;13.12;46.13;97761.91;5029287;28;20348;-58
2022/09/23 03:13:50;;;;;;;7.17;3.30;;;10.00;69.60;;;13.10;45.91;97762.09;5027019;28;20052;-58
2022/09/23 03:16:31;;;;;;;4.30;2.93;;;9.90;69.60;;;13.08;46.26;97764.09;5027211;28;20050;-58
2022/09/23 03:19:41;;;;;;;7.30;3.17;;;9.90;69.20;;;13.05;45.99;97766.31;5027865;28;20358;-58
2022/09/23 03:22:23;;;;;;;4.37;3.13;;;10.00;69.20;;;13.06;46.38;97755.44;5016637;28;20049;-58
2022/09/23 03:24:54;;;;;;;5.17;3.43;;;10.00;68.80;;;13.05;46.56;97759.13;5027479;28;20056;-58
2022/09/23 03:27:26;;;;;;;5.70;3.50;;;10.10;68.20;;;12.92;46.83;97759.66;5012452;28;20476;-58
2022/09/23 03:29:55;;;;;;;5.63;3.57;;;10.10;68.10;;;12.89;46.49;97753.84;5029040;28;20059;-58
2022/09/23 03:32:27;;;;;;;5.17;4.00;;;10.10;68.10;;;12.92;46.90;97759.66;5027557;28;20061;-58
2022/09/23 03:34:58;;;;;;;5.93;3.10;;;10.10;68.50;;;12.92;46.69;97762.34;5027393;28;20061;-58
2022/09/23 03:37:42;;;;;;;4.60;3.17;;;10.00;68.60;;;12.93;46.79;97757.81;5027954;28;20055;-57
2022/09/23 03:40:32;;;;;;;4.80;3.43;;;10.10;68.90;;;12.92;46.67;97759.66;5028264;28;20231;-58
2022/09/23 03:43:03;;;;;;;4.50;3.43;;;10.10;68.60;;;12.89;47.08;97756.50;5028340;28;20051;-60
2022/09/23 03:45:33;;;;;;;5.93;3.30;;;10.10;68.30;;;12.83;47.00;97757.19;5027766;28;20053;-59
2022/09/23 03:48:01;;;;;;;5.10;3.37;;;10.10;68.50;;;12.80;47.41;97748.53;5028066;28;20241;-59
2022/09/23 03:50:29;;;;;;;4.20;3.73;;;10.10;68.30;;;12.79;47.16;97743.34;5025272;28;20328;-59
2022/09/23 03:52:58;;;;;;;7.57;4.00;;;10.10;68.30;;;12.80;47.33;97750.38;5027200;28;20053;-60
2022/09/23 03:55:26;;;;;;;4.03;3.67;;;10.10;68.50;;;12.80;47.37;97748.53;5044145;28;20056;-60
2022/09/23 03:57:54;;;;;;;4.93;3.50;;;10.00;68.60;;;12.82;47.39;97739.53;5029038;28;20049;-60
2022/09/23 04:00:22;;;;;;;4.00;3.23;;;10.00;68.60;;;12.83;47.22;97735.84;5028497;28;20059;-59
2022/09/23 04:02:50;;;;;;;6.43;4.07;;;10.00;68.60;;;12.84;47.16;97738.34;5028712;28;20049;-59
2022/09/23 04:05:17;;;;;;;5.23;3.70;;;10.00;68.90;;;12.84;47.03;97732.16;5026905;28;20061;-60
2022/09/23 04:07:46;;;;;;;5.97;4.33;;;10.00;68.70;;;12.81;47.39;97733.31;5028097;28;20216;-60
2022/09/23 04:10:14;;;;;;;4.47;3.50;;;10.00;68.50;;;12.75;46.98;97728.69;5028801;28;20423;-60
2022/09/23 04:12:42;;;;;;;4.03;3.63;;;9.90;69.20;;;12.72;47.43;97727.19;5027970;28;20456;-59
2022/09/23 04:15:10;;;;;;;7.87;4.40;;;9.90;69.00;;;12.72;47.08;97724.53;5027190;28;20041;-60
2022/09/23 04:17:38;;;;;;;5.17;3.87;;;9.80;69.20;;;12.72;47.15;97727.19;5029058;28;20422;-60
2022/09/23 04:20:06;;;;;;;6.03;3.90;;;9.90;69.00;;;12.68;47.37;97725.88;5027569;28;20049;-60
2022/09/23 04:22:37;;;;;;;4.43;3.57;;;9.90;68.90;;;12.63;47.46;97724.72;5028001;28;20053;-59
2022/09/23 04:25:06;;;;;;;5.70;3.60;;;9.90;68.80;;;12.60;47.23;97729.41;5027844;28;20057;-60
2022/09/23 04:27:33;;;;;;;4.47;3.53;;;9.90;68.70;;;12.58;47.37;97720.75;5025748;28;20076;-57
2022/09/23 04:30:05;;;;;;;6.67;3.90;;;9.80;69.10;;;12.62;47.54;97723.91;5042838;28;20426;-58
2022/09/23 04:32:33;;;;;;;5.33;3.73;;;9.80;69.30;;;12.64;46.98;97727.22;5025880;28;20052;-59
2022/09/23 04:35:01;;;;;;;4.93;3.73;;;9.70;69.50;;;12.65;47.28;97728.06;5026885;28;20053;-58
2022/09/23 04:37:29;;;;;;;5.37;4.07;;;9.70;69.50;;;12.62;47.33;97721.22;5025885;28;20049;-58
2022/09/23 04:39:57;;;;;;;5.50;3.73;;;9.70;69.90;;;12.62;47.22;97726.56;5043118;28;20057;-57
2022/09/23 04:42:28;;;;;;;5.50;3.70;;;9.60;70.30;;;12.65;46.98;97725.38;5028067;28;20239;-57
2022/09/23 04:44:56;;;;;;;4.67;3.70;;;9.50;71.30;;;12.61;47.44;97719.56;5008821;28;20225;-58
2022/09/23 04:47:25;;;;;;;5.57;3.50;;;9.60;70.20;;;12.60;47.55;97725.88;5026588;28;20049;-58
2022/09/23 04:49:52;;;;;;;5.67;4.23;;;9.60;70.10;;;12.58;47.70;97725.22;5024876;28;20057;-60
2022/09/23 04:52:26;;;;;;;5.95;3.90;;;9.60;70.30;;;12.58;47.81;97725.22;5025668;28;20236;-59
2022/09/23 04:54:54;;;;;;;4.47;3.83;;;9.60;70.60;;;12.57;47.39;97721.72;5026122;28;20351;-60
2022/09/23 04:57:22;;;;;;;5.10;3.93;;;9.60;70.50;;;12.58;47.15;97719.88;5026510;28;20048;-60
2022/09/23 04:59:49;;;;;;;4.63;3.27;;;9.60;70.40;;;12.55;47.77;97720.25;5027112;28;20336;-57
2022/09/23 05:02:17;;;;;;;4.80;3.40;;;9.60;70.50;;;12.56;47.64;97729.91;5026061;28;20454;-57
2022/09/23 05:04:45;;;;;;;9.90;4.20;;;9.60;71.10;;;12.53;47.44;97727.59;5026664;28;20270;-57
2022/09/23 05:07:14;;;;;;;6.37;4.53;;;9.50;71.40;;;12.51;47.28;97730.44;5026229;28;20053;-58
2022/09/23 05:09:41;;;;;;;5.50;5.00;;;9.40;71.00;;;12.48;47.42;97730.75;5026926;28;20049;-58
2022/09/23 05:12:10;;;;;;;5.33;3.90;;;9.30;71.50;;;12.45;47.46;97736.47;5026925;28;20053;-59
2022/09/23 05:14:38;;;;;;;7.50;4.50;;;9.20;71.80;;;12.44;47.45;97741.97;5009258;28;20238;-57
2022/09/23 05:17:05;;;;;;;6.77;4.67;;;9.20;72.00;;;12.41;47.54;97737.81;5026359;28;20054;-57
2022/09/23 05:19:34;;;;;;;5.77;3.97;;;9.20;72.40;;;12.36;47.96;97735.63;5025083;28;20080;-57
2022/09/23 05:22:04;;;;;;;4.90;4.30;;;9.20;72.80;;;12.36;47.88;97740.16;5026093;28;20056;-54
2022/09/23 05:24:32;;;;;;;4.43;3.60;;;9.20;73.00;;;12.37;48.03;97741.81;5026700;28;20363;-56
2022/09/23 05:26:59;;;;;;;5.03;3.80;;;9.20;73.00;;;12.40;48.17;97738.81;5025333;28;20049;-56
2022/09/23 05:29:27;;;;;;;7.57;4.10;;;9.30;72.80;;;12.41;48.22;97748.50;5026700;28;20270;-57
2022/09/23 05:31:55;;;;;;;5.67;3.83;;;9.30;72.60;;;12.45;47.90;97738.31;5025415;28;20049;-57
2022/09/23 05:34:23;;;;;;;6.53;4.80;;;9.40;72.30;;;12.43;48.19;97738.47;5026213;28;20050;-57
2022/09/23 05:36:51;;;;;;;7.03;4.23;;;9.40;72.60;;;12.41;48.24;97727.97;5023626;28;20382;-56
2022/09/23 05:39:19;;;;;;;6.03;4.03;;;9.30;72.60;;;12.44;48.04;97733.97;5025404;28;20389;-57
2022/09/23 05:41:47;;;;;;;5.40;3.87;;;9.40;73.60;;;12.46;47.96;97738.13;5024893;28;20049;-57
2022/09/23 05:44:16;;;;;;;7.77;4.23;;;9.30;72.70;;;12.41;48.11;97732.47;5026371;28;20068;-58
2022/09/23 05:46:44;;;;;;;5.47;3.97;;;9.40;72.20;;;12.37;48.08;97733.81;5024222;28;20071;-58
2022/09/23 05:49:12;;;;;;;5.63;3.50;;;9.50;71.90;;;12.40;48.38;97734.28;5025055;28;20052;-58
2022/09/23 05:51:40;;;;;;;8.40;4.30;;;9.60;71.90;;;12.48;48.37;97741.44;5024104;28;20041;-58
2022/09/23 05:54:08;;;;;;;5.50;3.70;;;9.60;71.90;;;12.51;48.45;97738.44;5027525;28;20059;-60
2022/09/23 05:56:36;;;;;;;4.83;3.60;;;9.60;71.90;;;12.59;48.07;97734.91;5024020;28;20374;-59
2022/09/23 05:59:05;;;;;;;5.57;4.07;;;9.70;71.70;;;12.63;48.29;97736.25;5027340;28;20430;-59
2022/09/23 06:01:35;;;;;;;5.47;3.73;;;9.70;71.40;;;12.63;48.13;97746.91;5024843;28;20048;-57
2022/09/23 06:04:06;;;;;;;7.03;4.13;;;9.80;70.80;;;12.65;48.40;97742.25;5024522;28;20049;-59
2022/09/23 06:06:40;;;;;;;9.27;3.83;;;9.80;70.70;;;12.71;48.06;97744.22;5024853;28;20049;-58
2022/09/23 06:09:13;;;;;;;5.28;4.18;;;9.90;71.10;;;12.79;48.00;97735.34;5025496;28;20391;-59
2022/09/23 06:11:42;;;;;;;7.97;3.97;;;9.90;71.00;;;12.89;47.97;97743.16;5026639;28;20354;-56
2022/09/23 06:14:13;;;;;;;7.93;3.83;;;10.00;71.10;;;12.95;48.09;97743.31;5029350;28;20057;-56
2022/09/23 06:16:41;;;;;;;6.67;3.77;;;10.00;70.80;;;13.01;47.95;97739.09;5029797;28;20049;-57
2022/09/23 06:19:10;;;;;;;5.30;4.00;;;10.10;70.50;;;13.08;47.64;97739.22;5045589;28;20049;-58
2022/09/23 06:21:39;;;;;;;6.17;4.00;;;10.20;70.20;;;13.13;47.80;97740.38;5029300;28;20045;-58
2022/09/23 06:24:08;;;;;;;5.00;3.83;;;10.20;70.10;;;13.18;47.84;97738.00;5028792;28;20068;-60
2022/09/23 06:26:37;;;;;;;4.87;4.37;;;10.30;69.90;;;13.23;47.71;97733.97;5028930;28;20065;-58
2022/09/23 06:29:10;;;;;;;5.33;3.77;;;10.40;69.90;;;13.29;47.68;97725.25;5029505;28;20366;-57
2022/09/23 06:31:40;;;;;;;6.57;3.75;;;10.40;70.00;;;13.30;47.32;97729.59;5027559;28;20045;-58
2022/09/23 06:34:11;;;;;;;5.83;4.10;;;10.50;69.80;;;13.29;47.98;97736.78;5029368;28;20055;-59
2022/09/23 06:36:42;;;;;;;7.67;3.90;;;10.50;70.10;;;13.32;47.85;97730.28;5027800;28;20053;-58
2022/09/23 06:39:15;;;;;;;6.13;4.03;;;10.50;69.80;;;13.36;47.67;97731.59;5030299;28;20059;-59
2022/09/23 06:41:44;;;;;;;7.17;3.90;;;10.60;69.80;;;13.42;47.64;97727.38;5028999;28;20047;-59
2022/09/23 06:44:13;;;;;;;5.43;3.97;;;10.50;69.80;;;13.50;47.67;97733.50;5028746;28;20049;-59
2022/09/23 06:46:41;;;;;;;5.57;4.30;;;10.60;69.80;;;13.61;47.72;97734.09;5026737;28;20365;-58
2022/09/23 06:49:12;;;;;;;6.27;4.40;;;10.70;69.70;;;13.67;47.67;97733.41;5029671;28;20046;-59
2022/09/23 06:51:41;;;;;;;4.53;3.93;;;10.80;69.50;;;13.73;47.44;97730.00;5029728;28;20328;-59
2022/09/23 06:54:09;;;;;;;6.10;4.53;;;10.80;70.20;;;13.79;47.45;97727.44;5029479;28;20049;-58
2022/09/23 06:56:38;;;;;;;7.07;4.60;;;10.80;69.30;;;13.86;47.33;97729.38;5028703;28;20249;-59
2022/09/23 06:59:11;;;;;;;6.40;4.33;;;10.90;69.30;;;13.93;47.22;97722.31;5028284;28;20348;-59
2022/09/23 07:01:40;;;;;;;10.60;5.10;;;11.00;69.10;;;14.03;47.28;97730.09;5028447;28;20045;-56
2022/09/23 07:04:09;;;;;;;5.63;4.27;;;11.10;68.70;;;14.05;47.19;97734.22;5027919;28;20063;-60
2022/09/23 07:06:38;;;;;;;4.47;3.57;;;11.20;68.50;;;14.06;47.15;97729.72;5027349;28;20274;-60
2022/09/23 07:09:07;;;;;;;8.00;3.90;;;11.20;68.40;;;14.10;46.82;97731.84;5028268;28;20052;-61
2022/09/23 07:11:35;;;;;;;5.85;3.92;;;11.30;68.20;;;14.13;47.01;97736.00;5011525;28;20262;-61
2022/09/23 07:14:03;;;;;;;5.43;3.97;;;11.40;68.00;;;14.17;47.24;97738.16;5027240;28;20365;-60
2022/09/23 07:16:31;;;;;;;6.43;3.80;;;11.40;68.10;;;14.21;47.05;97741.31;5028564;28;20075;-61
2022/09/23 07:18:59;;;;;;;6.23;4.17;;;11.50;68.00;;;14.29;47.33;97738.53;5026943;28;20061;-57
2022/09/23 07:21:27;;;;;;;8.15;4.72;;;11.50;68.10;;;14.39;47.17;97740.94;5027826;28;20068;-56
2022/09/23 07:23:56;;;;;;;5.55;3.67;;;11.60;68.30;;;14.48;47.03;97736.31;5028948;28;20060;-57
2022/09/23 07:26:25;;;;;;;9.30;4.25;;;11.70;68.10;;;14.55;47.36;97743.44;5027442;28;20045;-56
2022/09/23 07:29:03;;;;;;;5.18;4.68;;;11.80;67.70;;;14.60;46.99;97732.22;5026262;28;20079;-56
2022/09/23 07:31:33;;;;;;;6.22;4.07;;;11.90;67.90;;;14.66;47.03;97730.66;5027304;28;20057;-54
2022/09/23 07:34:10;;;;;;;4.35;3.92;;;11.90;67.60;;;14.74;46.62;97731.38;5027134;28;20414;-53
2022/09/23 07:36:43;;;;;;;5.53;3.95;;;12.10;67.70;;;14.80;46.92;97735.16;5027677;28;20240;-59
2022/09/23 07:39:12;;;;;;;7.35;4.82;;;12.10;67.60;;;14.90;47.12;97742.94;5028412;28;20048;-59
2022/09/23 07:41:43;;;;;;;4.63;3.88;;;12.20;67.70;;;14.97;46.75;97743.84;5028046;28;20051;-59
2022/09/23 07:44:11;;;;;;;7.28;4.10;;;12.30;68.40;;;15.04;46.69;97743.91;5026938;28;20057;-61
2022/09/23 07:46:39;;;;;;;5.40;3.88;;;12.30;67.30;;;15.10;46.81;97744.03;5027900;28;20347;-60
2022/09/23 07:49:07;;;;;;;5.10;3.75;;;12.40;67.30;;;15.19;46.80;97743.91;5027731;28;20375;-59
2022/09/23 07:51:38;;;;;;;5.32;4.07;;;12.40;67.20;;;15.28;46.64;97748.16;5027084;28;20053;-59
2022/09/23 07:54:12;;;;;;;5.45;3.70;;;12.50;67.30;;;15.34;46.68;97742.84;5026902;28;20038;-59
2022/09/23 07:56:40;;;;;;;;;;;12.60;67.20;;;15.48;46.38;97746.50;5028408;28;20059;-59
2022/09/23 07:59:17;;;;;;;5.85;3.75;;;12.60;66.90;;;15.50;46.33;97744.47;5012093;28;19923;-59
2022/09/23 08:01:49;;;;;;;6.43;4.40;;;12.70;67.20;;;15.52;46.24;97741.59;5027495;28;20387;-59
2022/09/23 08:04:20;;;;;;;5.00;3.72;;;12.70;67.10;;;15.53;46.50;97751.31;5027840;28;20053;-59
2022/09/23 08:06:56;;;;;;;7.53;3.90;;;12.70;67.10;;;15.58;46.44;97745.38;5027062;28;20053;-59
2022/09/23 08:09:34;;;;;;;7.18;4.00;;;12.70;67.00;;;15.64;46.32;97748.09;5026048;28;20048;-60
2022/09/23 08:12:02;;;;;;;7.05;4.03;;;12.80;66.70;;;15.64;46.25;97742.75;5025272;28;20056;-59
2022/09/23 08:14:30;;;;;;;6.40;3.70;;;12.90;66.70;;;15.71;46.16;97748.19;5008451;28;20057;-59
2022/09/23 08:16:58;;;;;;;6.05;2.90;;;12.90;66.30;;;15.75;45.65;97760.22;5028427;28;20050;-59
2022/09/23 08:19:26;;;;;;;8.73;3.50;;;13.00;65.50;;;15.79;45.56;97747.25;5025686;28;20344;-59
2022/09/23 08:21:54;;;;;;;3.63;2.38;;;13.00;65.00;;;15.79;45.44;97747.25;5025745;28;20053;-60
2022/09/23 08:24:23;;;;;;;4.95;2.97;;;13.10;64.40;;;15.80;45.33;97759.66;5027526;28;20371;-59
2022/09/23 08:26:52;;;;;;;4.28;2.92;;;13.10;64.30;;;15.84;45.38;97752.88;5026904;28;20055;-59
2022/09/23 08:29:23;;;;;;;4.00;2.58;;;13.10;63.90;;;15.90;45.18;97754.81;5009820;28;20636;-60
2022/09/23 08:31:52;;;;;;;4.38;2.83;;;13.20;63.90;;;15.94;45.19;97750.72;5027222;28;20046;-60
2022/09/23 08:34:22;;;;;;;5.20;2.70;;;13.20;64.00;;;15.97;45.22;97754.84;5026762;28;20038;-59
2022/09/23 08:36:51;;;;;;;4.57;3.25;;;13.30;64.00;;;16.03;45.15;97746.88;5025980;28;20253;-60
2022/09/23 08:39:20;;;;;;;4.03;2.65;;;13.30;63.70;;;16.07;44.79;97755.34;5027188;28;20248;-60
2022/09/23 08:42:20;;;;;;;3.47;2.65;;;13.30;64.30;;;16.13;45.00;97754.59;5025741;28;20231;-59
2022/09/23 08:44:53;;;;;;;4.30;2.97;;;13.40;62.80;;;16.16;44.43;97754.19;5026576;28;20049;-59
2022/09/23 08:47:39;;;;;;;4.00;3.03;;;13.40;63.30;;;16.18;45.06;97754.84;5024128;28;20378;-61
2022/09/23 08:50:13;;;;;;;3.58;2.70;;;13.50;63.40;;;16.22;45.09;97748.03;5026806;28;20064;-59
2022/09/23 08:53:01;;;;;;;6.15;2.88;;;13.50;63.60;;;16.28;45.06;97741.06;5025781;28;20344;-59
2022/09/23 08:55:49;;;;;;;5.13;2.80;;;13.50;63.30;;;16.27;45.06;97750.97;5026408;28;20354;-58
2022/09/23 08:58:33;;;;;;;4.25;3.08;;;13.60;63.40;;;16.33;45.24;97752.06;5026918;28;20057;-59
2022/09/23 09:01:26;;;;;;;4.03;2.90;;;13.60;63.40;;;16.37;44.96;97756.00;5028341;28;20212;-59
2022/09/23 09:04:21;;;;;;;3.25;2.70;;;13.70;63.50;;;16.43;45.17;97749.03;5026537;28;20060;-61
2022/09/23 09:07:01;;;;;;;3.83;2.97;;;13.70;63.60;;;16.47;44.99;97751.13;5027737;28;20200;-61
2022/09/23 09:10:18;;;;;;;3.65;2.70;;;13.80;63.30;;;16.51;45.06;97749.69;5026242;28;20049;-59
2022/09/23 09:13:09;;;;;;;6.15;3.38;;;13.80;62.80;;;16.57;44.96;97748.09;5025485;28;20073;-59
2022/09/23 09:16:25;;;;;;;5.05;3.20;;;13.90;63.50;;;16.60;45.24;97747.69;5025969;28;20239;-59
2022/09/23 09:19:22;;;;;;;5.43;3.40;;;13.90;63.30;;;16.67;44.83;97743.22;5024203;28;20278;-59
2022/09/23 09:21:54;;;;;;;7.55;3.15;;;13.90;63.70;;;16.68;44.79;97738.66;5008413;28;20242;-59
2022/09/23 09:24:34;;;;;;;4.72;3.22;;;14.00;63.50;;;16.69;45.00;97743.84;5020821;28;20176;-60
2022/09/23 09:27:11;;;;;;;5.55;3.40;;;14.00;63.50;;;16.74;45.09;97745.91;5026585;28;20056;-60
2022/09/23 09:29:45;;;;;;;5.30;3.10;;;14.00;63.90;;;16.80;45.00;97747.00;5023994;28;20055;-59
2022/09/23 09:32:55;;;;;;;4.68;3.83;;;14.10;64.10;;;16.84;44.97;97737.53;5025769;28;20053;-60
2022/09/23 09:35:35;;;;;;;7.63;3.03;;;14.10;64.00;;;16.91;45.18;97741.91;5025629;28;20068;-60
2022/09/23 09:38:04;;;;;;;5.03;3.40;;;14.20;63.80;;;16.93;44.74;97728.28;5009706;28;20049;-60
2022/09/23 09:40:33;;;;;;;8.20;3.38;;;14.20;63.60;;;16.96;44.84;97724.34;5008893;28;20054;-60
2022/09/23 09:43:03;;;;;;;5.28;3.22;;;14.20;63.50;;;16.98;44.86;97723.09;5026060;28;20060;-60
2022/09/23 09:46:13;;;;;;;6.45;3.05;;;14.30;63.70;;;17.05;45.13;97731.22;5025614;28;20053;-60
2022/09/23 09:49:22;;;;;;;4.07;2.90;;;14.40;63.30;;;17.12;45.17;97722.16;5030950;28;20053;-60
2022/09/23 09:52:28;;;;;;;3.05;2.63;;;14.40;63.50;;;17.16;44.98;97717.19;5029085;28;20071;-60
2022/09/23 09:55:26;;;;;;;4.43;3.35;;;14.50;63.20;;;17.20;45.13;97713.06;5010773;28;20045;-59
2022/09/23 09:58:04;;;;;;;4.80;3.30;;;14.50;63.00;;;17.21;44.54;97712.03;5029576;28;20052;-60
2022/09/23 10:00:34;;;;;;;5.50;3.08;;;14.60;62.00;;;17.27;44.60;97713.09;5029033;28;20056;-60
2022/09/23 10:03:38;;;;;;;5.38;3.47;;;14.60;62.90;;;17.24;44.97;97708.94;5030062;28;20060;-59
2022/09/23 10:06:23;;;;;;;5.47;3.65;;;14.70;63.80;;;17.39;45.27;97703.41;5029428;28;20060;-59
2022/09/23 10:09:11;;;;;;;8.15;3.78;;;14.70;64.30;;;17.43;45.26;97717.28;5028246;28;20084;-61
2022/09/23 10:11:40;;;;;;;6.90;3.40;;;14.80;64.00;;;17.45;45.20;97709.84;5029730;28;20225;-56
2022/09/23 10:14:18;;;;;;;5.95;3.58;;;14.90;64.00;;;17.54;45.57;97710.47;5028999;28;20264;-60
2022/09/23 10:17:00;;;;;;;4.05;3.55;;;14.90;64.30;;;17.56;45.16;97708.41;5013772;28;20068;-59
2022/09/23 10:19:28;;;;;;;5.57;4.60;;;15.00;64.10;;;17.54;45.41;97705.91;5027867;28;20050;-59
2022/09/23 10:22:03;;;;;;;6.60;4.10;;;15.00;63.90;;;17.55;45.35;97715.66;5028376;28;20064;-59
2022/09/23 10:24:35;;;;;;;5.22;4.10;;;15.00;63.50;;;17.61;45.16;97708.63;5029321;28;20360;-59
2022/09/23 10:27:10;;;;;;;6.95;3.97;;;15.00;63.70;;;17.68;45.24;97699.53;5028842;28;20060;-60
2022/09/23 10:29:46;;;;;;;6.45;4.63;;;15.00;63.60;;;17.70;45.44;97702.00;5029657;28;20250;-56
2022/09/23 10:32:37;;;;;;;4.07;3.65;;;15.10;63.90;;;17.73;45.47;97693.50;5030454;28;20506;-56
2022/09/23 10:35:08;;;;;;;6.38;3.90;;;15.20;64.30;;;17.77;45.33;97697.44;5029385;28;20041;-59
2022/09/23 10:37:40;;;;;;;6.13;3.83;;;15.20;63.10;;;17.73;45.33;97696.19;5028966;28;20041;-59
2022/09/23 10:46:44;;;;;;;5.90;4.28;;;15.20;62.30;;;17.90;44.69;97689.41;5028069;28;20068;-60
2022/09/23 10:49:21;;;;;;;6.25;4.13;;;15.20;63.10;;;17.90;44.69;97691.28;5029099;28;20514;-60
2022/09/23 10:52:13;;;;;;;6.50;3.35;;;15.30;62.80;;;18.00;44.99;97680.09;5028572;28;20049;-59
2022/09/23 10:55:17;;;;;;;5.18;4.10;;;15.40;63.30;;;17.83;45.00;97683.16;5029052;28;20247;-60
2022/09/23 10:57:45;;;;;;;4.25;3.50;;;15.50;61.20;;;18.09;44.61;97687.75;5027171;28;20059;-58
2022/09/23 11:00:22;;;;;;;5.47;3.92;;;15.60;62.10;;;18.12;44.39;97675.72;5029375;28;20063;-60
2022/09/23 11:03:23;;;;;;;5.57;3.33;;;15.60;61.20;;;18.21;44.16;97668.28;5028443;28;20060;-60